sensor_id;sensor_type;location;lat;lon;timestamp;pressure;altitude;pressure_sealevel;temperature;humidity
63691;BME280;49837;57.280;27.070;2023-02-22T00:00:13;99935.44;;;-15.93;88.61
63691;BME280;49837;57.280;27.070;2023-02-22T00:01:13;99937.3;;;-15.9;88.27
63691;BME280;49837;57.280;27.070;2023-02-22T00:02:12;99941.69;;;-15.98;87.64
63691;BME280;49837;57.280;27.070;2023-02-22T00:03:23;99948.4;;;-16.03;87.29
63691;BME280;49837;57.280;27.070;2023-02-22T00:04:16;99950.03;;;-16.08;87.01
63691;BME280;49837;57.280;27.070;2023-02-22T00:05:18;99952.37;;;-16.11;86.95
63691;BME280;49837;57.280;27.070;2023-02-22T00:06:19;99956.27;;;-16.08;87.13
63691;BME280;49837;57.280;27.070;2023-02-22T00:07:17;99955.91;;;-16.01;87.28
63691;BME280;49837;57.280;27.070;2023-02-22T00:08:20;99952.34;;;-16.03;87.21
63691;BME280;49837;57.280;27.070;2023-02-22T00:09:18;99956.63;;;-16.04;87.12
63691;BME280;49837;57.280;27.070;2023-02-22T00:10:19;99958.66;;;-16.1;87.1
63691;BME280;49837;57.280;27.070;2023-02-22T00:11:19;99957.13;;;-16.12;87.03
63691;BME280;49837;57.280;27.070;2023-02-22T00:12:19;99959.94;;;-16.16;86.92
63691;BME280;49837;57.280;27.070;2023-02-22T00:13:20;99960.69;;;-16.13;86.97
63691;BME280;49837;57.280;27.070;2023-02-22T00:14:20;99958.42;;;-16.09;86.82
63691;BME280;49837;57.280;27.070;2023-02-22T00:15:22;99960.59;;;-16.13;86.62
63691;BME280;49837;57.280;27.070;2023-02-22T00:16:22;99958.7;;;-16.16;86.62
63691;BME280;49837;57.280;27.070;2023-02-22T00:17:21;99962.34;;;-16.18;86.69
63691;BME280;49837;57.280;27.070;2023-02-22T00:18:22;99962.45;;;-16.25;86.53
63691;BME280;49837;57.280;27.070;2023-02-22T00:19:22;99964.1;;;-16.34;86.51
63691;BME280;49837;57.280;27.070;2023-02-22T00:20:23;99967.73;;;-16.43;86.53
63691;BME280;49837;57.280;27.070;2023-02-22T00:21:23;99972.82;;;-16.46;86.59
63691;BME280;49837;57.280;27.070;2023-02-22T00:22:24;99973.09;;;-16.52;86.54
63691;BME280;49837;57.280;27.070;2023-02-22T00:23:25;99977.22;;;-16.58;86.45
63691;BME280;49837;57.280;27.070;2023-02-22T00:24:24;99972.62;;;-16.72;86.4
63691;BME280;49837;57.280;27.070;2023-02-22T00:25:25;99973.59;;;-16.78;86.38
63691;BME280;49837;57.280;27.070;2023-02-22T00:26:25;99973.73;;;-16.81;86.32
63691;BME280;49837;57.280;27.070;2023-02-22T00:27:26;99969.27;;;-16.87;86.3
63691;BME280;49837;57.280;27.070;2023-02-22T00:28:26;99974.88;;;-16.9;86.5
63691;BME280;49837;57.280;27.070;2023-02-22T00:29:26;99979.55;;;-16.93;86.69
63691;BME280;49837;57.280;27.070;2023-02-22T00:30:28;99981.56;;;-16.89;86.78
63691;BME280;49837;57.280;27.070;2023-02-22T00:31:27;99984.09;;;-16.92;86.86
63691;BME280;49837;57.280;27.070;2023-02-22T00:32:28;99985.61;;;-16.91;86.87
63691;BME280;49837;57.280;27.070;2023-02-22T00:33:28;99982.53;;;-16.91;86.98
63691;BME280;49837;57.280;27.070;2023-02-22T00:34:28;99990.52;;;-16.88;86.96
63691;BME280;49837;57.280;27.070;2023-02-22T00:35:29;99990.91;;;-16.91;86.95
63691;BME280;49837;57.280;27.070;2023-02-22T00:36:29;99991.14;;;-16.89;87.14
63691;BME280;49837;57.280;27.070;2023-02-22T00:37:30;99990.98;;;-16.89;87.06
63691;BME280;49837;57.280;27.070;2023-02-22T00:38:30;99992.39;;;-16.95;86.87
63691;BME280;49837;57.280;27.070;2023-02-22T00:39:31;99991.27;;;-16.97;86.81
63691;BME280;49837;57.280;27.070;2023-02-22T00:40:33;99995.22;;;-16.97;86.69
63691;BME280;49837;57.280;27.070;2023-02-22T00:41:32;99993.8;;;-17.05;86.53
63691;BME280;49837;57.280;27.070;2023-02-22T00:42:32;99992.09;;;-17.15;86.41
63691;BME280;49837;57.280;27.070;2023-02-22T00:43:33;99995.53;;;-17.19;86.41
63691;BME280;49837;57.280;27.070;2023-02-22T00:44:33;99996.16;;;-17.24;86.35
63691;BME280;49837;57.280;27.070;2023-02-22T00:45:34;99995.45;;;-17.23;86.16
63691;BME280;49837;57.280;27.070;2023-02-22T00:46:33;99998.25;;;-17.27;86.07
63691;BME280;49837;57.280;27.070;2023-02-22T00:47:34;99999.66;;;-17.32;86.04
63691;BME280;49837;57.280;27.070;2023-02-22T00:48:34;100000.48;;;-17.34;85.95
63691;BME280;49837;57.280;27.070;2023-02-22T00:49:35;99994.53;;;-17.35;86.01
63691;BME280;49837;57.280;27.070;2023-02-22T00:50:35;99998.48;;;-17.37;86.11
63691;BME280;49837;57.280;27.070;2023-02-22T00:51:36;99996.54;;;-17.37;86.18
63691;BME280;49837;57.280;27.070;2023-02-22T00:52:37;100002.7;;;-17.33;86.24
63691;BME280;49837;57.280;27.070;2023-02-22T00:53:37;100009.0;;;-17.28;86.12
63691;BME280;49837;57.280;27.070;2023-02-22T00:54:37;100012.45;;;-17.26;86.03
63691;BME280;49837;57.280;27.070;2023-02-22T00:55:37;100010.69;;;-17.25;86.04
63691;BME280;49837;57.280;27.070;2023-02-22T00:56:38;100009.42;;;-17.3;86.17
63691;BME280;49837;57.280;27.070;2023-02-22T00:57:38;100013.61;;;-17.36;86.05
63691;BME280;49837;57.280;27.070;2023-02-22T00:58:38;100012.88;;;-17.37;86.11
63691;BME280;49837;57.280;27.070;2023-02-22T00:59:39;100015.42;;;-17.35;86.18
63691;BME280;49837;57.280;27.070;2023-02-22T01:00:40;100017.68;;;-17.35;86.27
63691;BME280;49837;57.280;27.070;2023-02-22T01:01:40;100016.58;;;-17.34;86.25
63691;BME280;49837;57.280;27.070;2023-02-22T01:02:41;100016.23;;;-17.34;86.25
63691;BME280;49837;57.280;27.070;2023-02-22T01:03:40;100015.38;;;-17.41;86.03
63691;BME280;49837;57.280;27.070;2023-02-22T01:04:41;100017.49;;;-17.42;86.05
63691;BME280;49837;57.280;27.070;2023-02-22T01:05:42;100020.84;;;-17.39;86.26
63691;BME280;49837;57.280;27.070;2023-02-22T01:06:42;100022.59;;;-17.44;86.24
63691;BME280;49837;57.280;27.070;2023-02-22T01:07:42;100017.58;;;-17.4;86.33
63691;BME280;49837;57.280;27.070;2023-02-22T01:08:44;100019.64;;;-17.43;86.17
63691;BME280;49837;57.280;27.070;2023-02-22T01:09:43;100024.77;;;-17.44;85.96
63691;BME280;49837;57.280;27.070;2023-02-22T01:10:44;100023.48;;;-17.45;85.96
63691;BME280;49837;57.280;27.070;2023-02-22T01:11:44;100023.8;;;-17.5;85.8
63691;BME280;49837;57.280;27.070;2023-02-22T01:12:45;100021.96;;;-17.53;85.81
63691;BME280;49837;57.280;27.070;2023-02-22T01:13:45;100024.25;;;-17.56;85.77
63691;BME280;49837;57.280;27.070;2023-02-22T01:14:45;100025.22;;;-17.54;85.72
63691;BME280;49837;57.280;27.070;2023-02-22T01:15:45;100027.27;;;-17.54;85.75
63691;BME280;49837;57.280;27.070;2023-02-22T01:16:46;100024.57;;;-17.56;85.68
63691;BME280;49837;57.280;27.070;2023-02-22T01:17:47;100024.48;;;-17.58;85.71
63691;BME280;49837;57.280;27.070;2023-02-22T01:18:47;100024.95;;;-17.58;85.75
63691;BME280;49837;57.280;27.070;2023-02-22T01:19:47;100029.0;;;-17.58;85.7
63691;BME280;49837;57.280;27.070;2023-02-22T01:20:47;100033.39;;;-17.57;85.74
63691;BME280;49837;57.280;27.070;2023-02-22T01:21:48;100028.3;;;-17.58;85.75
63691;BME280;49837;57.280;27.070;2023-02-22T01:22:49;100029.74;;;-17.61;85.83
63691;BME280;49837;57.280;27.070;2023-02-22T01:23:49;100029.41;;;-17.64;86.08
63691;BME280;49837;57.280;27.070;2023-02-22T01:24:50;100031.23;;;-17.6;86.38
63691;BME280;49837;57.280;27.070;2023-02-22T01:25:49;100036.52;;;-17.5;86.5
63691;BME280;49837;57.280;27.070;2023-02-22T01:26:51;100030.89;;;-17.53;86.23
63691;BME280;49837;57.280;27.070;2023-02-22T01:27:51;100032.05;;;-17.59;86.05
63691;BME280;49837;57.280;27.070;2023-02-22T01:28:51;100028.2;;;-17.67;85.83
63691;BME280;49837;57.280;27.070;2023-02-22T01:29:51;100029.91;;;-17.78;85.66
63691;BME280;49837;57.280;27.070;2023-02-22T01:30:51;100030.02;;;-17.91;85.75
63691;BME280;49837;57.280;27.070;2023-02-22T01:31:54;100034.64;;;-18.05;85.62
63691;BME280;49837;57.280;27.070;2023-02-22T01:32:52;100036.95;;;-18.12;85.45
63691;BME280;49837;57.280;27.070;2023-02-22T01:33:53;100035.98;;;-18.16;85.38
63691;BME280;49837;57.280;27.070;2023-02-22T01:34:53;100037.83;;;-18.1;85.5
63691;BME280;49837;57.280;27.070;2023-02-22T01:35:53;100041.17;;;-18.1;85.37
63691;BME280;49837;57.280;27.070;2023-02-22T01:36:54;100037.41;;;-18.13;85.29
63691;BME280;49837;57.280;27.070;2023-02-22T01:37:55;100042.08;;;-18.2;85.23
63691;BME280;49837;57.280;27.070;2023-02-22T01:38:55;100045.05;;;-18.28;85.3
63691;BME280;49837;57.280;27.070;2023-02-22T01:39:55;100048.18;;;-18.32;85.59
63691;BME280;49837;57.280;27.070;2023-02-22T01:40:55;100050.0;;;-18.29;85.74
63691;BME280;49837;57.280;27.070;2023-02-22T01:41:56;100047.04;;;-18.26;85.93
63691;BME280;49837;57.280;27.070;2023-02-22T01:43:00;100046.73;;;-18.27;86.25
63691;BME280;49837;57.280;27.070;2023-02-22T01:46:23;100054.23;;;-18.2;86.42
63691;BME280;49837;57.280;27.070;2023-02-22T01:47:06;100052.48;;;-18.23;86.2
63691;BME280;49837;57.280;27.070;2023-02-22T01:48:10;100052.73;;;-18.22;85.93
63691;BME280;49837;57.280;27.070;2023-02-22T01:49:08;100059.64;;;-18.23;85.82
63691;BME280;49837;57.280;27.070;2023-02-22T01:50:09;100062.12;;;-18.19;85.73
63691;BME280;49837;57.280;27.070;2023-02-22T01:52:17;100060.94;;;-18.21;85.52
63691;BME280;49837;57.280;27.070;2023-02-22T01:53:17;100060.99;;;-18.26;85.31
63691;BME280;49837;57.280;27.070;2023-02-22T01:54:30;100063.2;;;-18.27;85.28
63691;BME280;49837;57.280;27.070;2023-02-22T01:55:19;100065.66;;;-18.28;85.16
63691;BME280;49837;57.280;27.070;2023-02-22T01:56:20;100070.16;;;-18.35;85.08
63691;BME280;49837;57.280;27.070;2023-02-22T01:57:30;100072.41;;;-18.42;85.13
63691;BME280;49837;57.280;27.070;2023-02-22T01:58:25;100068.06;;;-18.47;85.23
63691;BME280;49837;57.280;27.070;2023-02-22T01:59:24;100066.97;;;-18.42;85.24
63691;BME280;49837;57.280;27.070;2023-02-22T02:00:24;100072.94;;;-18.37;85.41
63691;BME280;49837;57.280;27.070;2023-02-22T02:01:25;100070.75;;;-18.41;85.48
63691;BME280;49837;57.280;27.070;2023-02-22T02:02:25;100071.73;;;-18.4;85.46
63691;BME280;49837;57.280;27.070;2023-02-22T02:03:34;100071.77;;;-18.41;85.39
63691;BME280;49837;57.280;27.070;2023-02-22T02:04:28;100076.79;;;-18.4;85.45
63691;BME280;49837;57.280;27.070;2023-02-22T02:05:30;100075.09;;;-18.33;85.48
63691;BME280;49837;57.280;27.070;2023-02-22T02:06:31;100065.05;;;-18.28;85.41
63691;BME280;49837;57.280;27.070;2023-02-22T02:07:29;100075.29;;;-18.26;85.36
63691;BME280;49837;57.280;27.070;2023-02-22T02:08:54;100072.27;;;-18.27;85.36
63691;BME280;49837;57.280;27.070;2023-02-22T02:10:40;100078.08;;;-18.39;85.25
63691;BME280;49837;57.280;27.070;2023-02-22T02:11:40;100079.2;;;-18.47;85.21
63691;BME280;49837;57.280;27.070;2023-02-22T02:12:45;100081.07;;;-18.53;85.08
63691;BME280;49837;57.280;27.070;2023-02-22T02:13:44;100081.55;;;-18.54;85.0
63691;BME280;49837;57.280;27.070;2023-02-22T02:14:45;100080.37;;;-18.52;85.07
63691;BME280;49837;57.280;27.070;2023-02-22T02:15:45;100080.57;;;-18.5;85.1
63691;BME280;49837;57.280;27.070;2023-02-22T02:16:48;100086.34;;;-18.51;85.09
63691;BME280;49837;57.280;27.070;2023-02-22T02:17:48;100088.45;;;-18.56;85.06
63691;BME280;49837;57.280;27.070;2023-02-22T02:18:47;100088.77;;;-18.59;85.1
63691;BME280;49837;57.280;27.070;2023-02-22T02:33:35;100100.45;;;-19.15;85.13
63691;BME280;49837;57.280;27.070;2023-02-22T02:34:37;100102.21;;;-19.11;85.2
63691;BME280;49837;57.280;27.070;2023-02-22T02:35:53;100103.0;;;-19.1;85.3
63691;BME280;49837;57.280;27.070;2023-02-22T02:41:50;100112.36;;;-19.12;85.39
63691;BME280;49837;57.280;27.070;2023-02-22T02:46:13;100113.69;;;-19.33;85.06
63691;BME280;49837;57.280;27.070;2023-02-22T02:47:04;100123.44;;;-19.39;84.99
63691;BME280;49837;57.280;27.070;2023-02-22T02:48:05;100117.03;;;-19.36;85.06
63691;BME280;49837;57.280;27.070;2023-02-22T02:49:10;100111.26;;;-19.43;84.91
63691;BME280;49837;57.280;27.070;2023-02-22T02:50:13;100119.95;;;-19.47;84.8
63691;BME280;49837;57.280;27.070;2023-02-22T02:51:13;100121.47;;;-19.45;84.68
63691;BME280;49837;57.280;27.070;2023-02-22T02:52:15;100120.77;;;-19.51;84.71
63691;BME280;49837;57.280;27.070;2023-02-22T02:53:20;100122.05;;;-19.62;84.46
63691;BME280;49837;57.280;27.070;2023-02-22T02:54:20;100125.5;;;-19.59;84.55
63691;BME280;49837;57.280;27.070;2023-02-22T02:55:19;100130.08;;;-19.52;84.68
63691;BME280;49837;57.280;27.070;2023-02-22T02:56:19;100124.42;;;-19.45;84.72
63691;BME280;49837;57.280;27.070;2023-02-22T02:57:19;100136.7;;;-19.32;84.77
63691;BME280;49837;57.280;27.070;2023-02-22T02:58:21;100139.86;;;-19.37;84.69
63691;BME280;49837;57.280;27.070;2023-02-22T02:59:35;100137.59;;;-19.41;84.56
63691;BME280;49837;57.280;27.070;2023-02-22T03:00:26;100135.34;;;-19.49;84.5
63691;BME280;49837;57.280;27.070;2023-02-22T03:20:09;100151.44;;;-19.45;84.42
63691;BME280;49837;57.280;27.070;2023-02-22T03:22:20;100161.56;;;-19.59;84.47
63691;BME280;49837;57.280;27.070;2023-02-22T03:24:21;100157.0;;;-19.63;84.29
63691;BME280;49837;57.280;27.070;2023-02-22T03:25:20;100159.88;;;-19.67;84.25
63691;BME280;49837;57.280;27.070;2023-02-22T03:26:34;100162.81;;;-19.72;84.31
63691;BME280;49837;57.280;27.070;2023-02-22T03:27:45;100162.93;;;-19.82;84.56
63691;BME280;49837;57.280;27.070;2023-02-22T03:28:29;100164.08;;;-19.86;84.71
63691;BME280;49837;57.280;27.070;2023-02-22T03:29:30;100167.48;;;-19.88;84.92
63691;BME280;49837;57.280;27.070;2023-02-22T03:31:33;100168.2;;;-19.81;85.49
63691;BME280;49837;57.280;27.070;2023-02-22T03:32:36;100173.49;;;-19.76;85.57
63691;BME280;49837;57.280;27.070;2023-02-22T03:33:39;100170.56;;;-19.75;85.58
63691;BME280;49837;57.280;27.070;2023-02-22T03:34:42;100172.86;;;-19.77;85.56
63691;BME280;49837;57.280;27.070;2023-02-22T03:37:48;100169.0;;;-19.86;85.33
63691;BME280;49837;57.280;27.070;2023-02-22T03:38:48;100169.31;;;-19.8;85.58
63691;BME280;49837;57.280;27.070;2023-02-22T03:39:48;100174.48;;;-19.79;85.7
63691;BME280;49837;57.280;27.070;2023-02-22T03:40:50;100171.78;;;-19.79;85.62
63691;BME280;49837;57.280;27.070;2023-02-22T03:41:50;100174.23;;;-19.8;85.22
63691;BME280;49837;57.280;27.070;2023-02-22T03:42:55;100173.02;;;-19.8;85.11
63691;BME280;49837;57.280;27.070;2023-02-22T03:44:57;100183.19;;;-19.82;84.89
63691;BME280;49837;57.280;27.070;2023-02-22T03:45:57;100183.02;;;-19.9;84.62
63691;BME280;49837;57.280;27.070;2023-02-22T03:47:00;100185.44;;;-19.93;84.3
63691;BME280;49837;57.280;27.070;2023-02-22T03:49:11;100186.7;;;-19.94;84.36
63691;BME280;49837;57.280;27.070;2023-02-22T03:50:13;100191.66;;;-19.87;84.37
63691;BME280;49837;57.280;27.070;2023-02-22T03:51:07;100188.01;;;-19.9;84.25
63691;BME280;49837;57.280;27.070;2023-02-22T03:52:08;100190.11;;;-20.0;84.07
63691;BME280;49837;57.280;27.070;2023-02-22T03:53:08;100190.95;;;-20.05;84.07
63691;BME280;49837;57.280;27.070;2023-02-22T03:54:08;100193.84;;;-20.08;84.24
63691;BME280;49837;57.280;27.070;2023-02-22T03:55:10;100195.84;;;-20.13;84.18
63691;BME280;49837;57.280;27.070;2023-02-22T03:56:12;100195.72;;;-20.19;83.98
63691;BME280;49837;57.280;27.070;2023-02-22T03:57:16;100197.91;;;-20.24;83.89
63691;BME280;49837;57.280;27.070;2023-02-22T03:58:19;100201.62;;;-20.24;83.86
63691;BME280;49837;57.280;27.070;2023-02-22T03:59:18;100197.94;;;-20.2;83.82
63691;BME280;49837;57.280;27.070;2023-02-22T04:00:22;100201.59;;;-20.17;83.9
63691;BME280;49837;57.280;27.070;2023-02-22T04:01:20;100204.23;;;-20.15;83.95
63691;BME280;49837;57.280;27.070;2023-02-22T04:02:20;100205.37;;;-20.12;84.03
63691;BME280;49837;57.280;27.070;2023-02-22T04:03:21;100204.95;;;-20.09;84.07
63691;BME280;49837;57.280;27.070;2023-02-22T04:04:21;100206.22;;;-20.05;84.06
63691;BME280;49837;57.280;27.070;2023-02-22T04:05:21;100202.72;;;-20.0;84.06
63691;BME280;49837;57.280;27.070;2023-02-22T04:06:22;100204.12;;;-19.97;83.98
63691;BME280;49837;57.280;27.070;2023-02-22T04:07:22;100208.91;;;-19.96;84.19
63691;BME280;49837;57.280;27.070;2023-02-22T04:08:22;100209.14;;;-20.0;84.2
63691;BME280;49837;57.280;27.070;2023-02-22T04:09:23;100206.44;;;-20.06;84.05
63691;BME280;49837;57.280;27.070;2023-02-22T04:10:24;100209.3;;;-20.09;84.2
63691;BME280;49837;57.280;27.070;2023-02-22T04:11:23;100211.27;;;-20.16;84.19
63691;BME280;49837;57.280;27.070;2023-02-22T04:12:24;100213.2;;;-20.19;84.05
63691;BME280;49837;57.280;27.070;2023-02-22T04:13:24;100211.02;;;-20.25;83.98
63691;BME280;49837;57.280;27.070;2023-02-22T04:14:25;100213.66;;;-20.26;83.91
63691;BME280;49837;57.280;27.070;2023-02-22T04:15:25;100218.48;;;-20.22;83.85
63691;BME280;49837;57.280;27.070;2023-02-22T04:16:25;100221.81;;;-20.17;83.71
63691;BME280;49837;57.280;27.070;2023-02-22T04:17:26;100219.52;;;-20.17;83.64
63691;BME280;49837;57.280;27.070;2023-02-22T04:18:26;100217.97;;;-20.19;83.68
63691;BME280;49837;57.280;27.070;2023-02-22T04:19:27;100223.81;;;-20.2;83.63
63691;BME280;49837;57.280;27.070;2023-02-22T04:20:27;100225.88;;;-20.22;83.74
63691;BME280;49837;57.280;27.070;2023-02-22T04:21:27;100225.02;;;-20.26;83.65
63691;BME280;49837;57.280;27.070;2023-02-22T04:22:28;100226.53;;;-20.32;83.54
63691;BME280;49837;57.280;27.070;2023-02-22T04:23:28;100224.06;;;-20.35;83.45
63691;BME280;49837;57.280;27.070;2023-02-22T04:24:29;100227.84;;;-20.36;83.54
63691;BME280;49837;57.280;27.070;2023-02-22T04:25:29;100226.88;;;-20.4;83.46
63691;BME280;49837;57.280;27.070;2023-02-22T04:26:29;100226.81;;;-20.44;83.63
63691;BME280;49837;57.280;27.070;2023-02-22T04:27:30;100229.94;;;-20.52;83.72
63691;BME280;49837;57.280;27.070;2023-02-22T04:28:30;100226.02;;;-20.5;83.6
63691;BME280;49837;57.280;27.070;2023-02-22T04:29:30;100228.17;;;-20.44;83.73
63691;BME280;49837;57.280;27.070;2023-02-22T04:30:31;100227.0;;;-20.48;83.71
63691;BME280;49837;57.280;27.070;2023-02-22T04:31:31;100227.82;;;-20.49;83.77
63691;BME280;49837;57.280;27.070;2023-02-22T04:32:32;100229.34;;;-20.5;83.78
63691;BME280;49837;57.280;27.070;2023-02-22T04:33:32;100233.75;;;-20.52;83.78
63691;BME280;49837;57.280;27.070;2023-02-22T04:34:32;100230.98;;;-20.57;83.69
63691;BME280;49837;57.280;27.070;2023-02-22T04:35:33;100230.22;;;-20.58;83.58
63691;BME280;49837;57.280;27.070;2023-02-22T04:36:33;100237.85;;;-20.65;83.59
63691;BME280;49837;57.280;27.070;2023-02-22T04:37:33;100235.3;;;-20.72;83.49
63691;BME280;49837;57.280;27.070;2023-02-22T04:38:34;100235.39;;;-20.75;83.56
63691;BME280;49837;57.280;27.070;2023-02-22T04:39:34;100235.78;;;-20.71;83.63
63691;BME280;49837;57.280;27.070;2023-02-22T04:40:35;100230.08;;;-20.66;83.73
63691;BME280;49837;57.280;27.070;2023-02-22T04:41:35;100230.45;;;-20.67;83.6
63691;BME280;49837;57.280;27.070;2023-02-22T04:42:36;100224.02;;;-20.62;83.74
63691;BME280;49837;57.280;27.070;2023-02-22T04:43:36;100234.86;;;-20.69;83.67
63691;BME280;49837;57.280;27.070;2023-02-22T04:44:36;100229.34;;;-20.82;83.52
63691;BME280;49837;57.280;27.070;2023-02-22T04:45:37;100227.86;;;-20.81;83.83
63691;BME280;49837;57.280;27.070;2023-02-22T04:46:37;100228.65;;;-20.92;83.7
63691;BME280;49837;57.280;27.070;2023-02-22T04:47:37;100236.02;;;-20.98;83.63
63691;BME280;49837;57.280;27.070;2023-02-22T04:48:38;100231.27;;;-20.97;83.54
63691;BME280;49837;57.280;27.070;2023-02-22T04:49:38;100233.39;;;-20.97;83.52
63691;BME280;49837;57.280;27.070;2023-02-22T04:50:38;100232.98;;;-20.96;83.47
63691;BME280;49837;57.280;27.070;2023-02-22T04:51:39;100234.85;;;-20.96;83.43
63691;BME280;49837;57.280;27.070;2023-02-22T04:52:39;100232.2;;;-21.01;83.36
63691;BME280;49837;57.280;27.070;2023-02-22T04:53:40;100233.02;;;-21.13;83.37
63691;BME280;49837;57.280;27.070;2023-02-22T04:54:40;100235.02;;;-21.05;83.68
63691;BME280;49837;57.280;27.070;2023-02-22T04:55:40;100233.73;;;-21.1;83.57
63691;BME280;49837;57.280;27.070;2023-02-22T04:56:41;100236.91;;;-21.08;83.53
63691;BME280;49837;57.280;27.070;2023-02-22T04:57:41;100239.97;;;-21.1;83.44
63691;BME280;49837;57.280;27.070;2023-02-22T04:58:42;100238.92;;;-21.11;83.43
63691;BME280;49837;57.280;27.070;2023-02-22T04:59:42;100243.23;;;-21.12;83.34
63691;BME280;49837;57.280;27.070;2023-02-22T05:00:42;100244.25;;;-21.23;83.06
63691;BME280;49837;57.280;27.070;2023-02-22T05:01:42;100245.61;;;-21.33;82.89
63691;BME280;49837;57.280;27.070;2023-02-22T05:02:43;100246.59;;;-21.39;82.9
63691;BME280;49837;57.280;27.070;2023-02-22T05:03:43;100248.8;;;-21.27;83.14
63691;BME280;49837;57.280;27.070;2023-02-22T05:04:44;100244.82;;;-21.18;83.36
63691;BME280;49837;57.280;27.070;2023-02-22T05:05:44;100249.03;;;-21.12;83.2
63691;BME280;49837;57.280;27.070;2023-02-22T05:06:44;100253.03;;;-21.18;82.97
63691;BME280;49837;57.280;27.070;2023-02-22T05:07:45;100258.49;;;-21.22;83.03
63691;BME280;49837;57.280;27.070;2023-02-22T05:08:45;100258.86;;;-21.31;82.84
63691;BME280;49837;57.280;27.070;2023-02-22T05:09:45;100260.11;;;-21.35;82.9
63691;BME280;49837;57.280;27.070;2023-02-22T05:10:46;100266.39;;;-21.38;82.96
63691;BME280;49837;57.280;27.070;2023-02-22T05:11:46;100265.35;;;-21.39;82.81
63691;BME280;49837;57.280;27.070;2023-02-22T05:12:47;100265.14;;;-21.48;82.62
63691;BME280;49837;57.280;27.070;2023-02-22T05:13:47;100269.31;;;-21.49;82.63
63691;BME280;49837;57.280;27.070;2023-02-22T05:14:47;100268.73;;;-21.5;82.59
63691;BME280;49837;57.280;27.070;2023-02-22T05:15:48;100273.69;;;-21.49;82.66
63691;BME280;49837;57.280;27.070;2023-02-22T05:16:48;100270.84;;;-21.48;82.76
63691;BME280;49837;57.280;27.070;2023-02-22T05:17:48;100270.66;;;-21.46;82.66
63691;BME280;49837;57.280;27.070;2023-02-22T05:18:49;100274.03;;;-21.44;82.64
63691;BME280;49837;57.280;27.070;2023-02-22T05:19:49;100271.88;;;-21.37;83.65
63691;BME280;49837;57.280;27.070;2023-02-22T05:20:50;100277.62;;;-21.41;83.87
63691;BME280;49837;57.280;27.070;2023-02-22T05:21:50;100278.55;;;-21.4;84.05
63691;BME280;49837;57.280;27.070;2023-02-22T05:22:50;100274.17;;;-21.31;84.41
63691;BME280;49837;57.280;27.070;2023-02-22T05:23:51;100278.56;;;-21.32;84.14
63691;BME280;49837;57.280;27.070;2023-02-22T05:24:51;100283.8;;;-21.36;83.85
63691;BME280;49837;57.280;27.070;2023-02-22T05:25:52;100282.23;;;-21.34;83.85
63691;BME280;49837;57.280;27.070;2023-02-22T05:26:52;100282.52;;;-21.29;83.68
63691;BME280;49837;57.280;27.070;2023-02-22T05:27:55;100284.98;;;-21.24;83.8
63691;BME280;49837;57.280;27.070;2023-02-22T05:28:53;100283.75;;;-21.15;84.56
63691;BME280;49837;57.280;27.070;2023-02-22T05:29:53;100286.09;;;-21.11;84.55
63691;BME280;49837;57.280;27.070;2023-02-22T05:30:53;100285.72;;;-21.07;84.6
63691;BME280;49837;57.280;27.070;2023-02-22T05:31:54;100283.41;;;-21.08;84.33
63691;BME280;49837;57.280;27.070;2023-02-22T05:32:55;100287.84;;;-21.08;84.2
63691;BME280;49837;57.280;27.070;2023-02-22T05:33:54;100287.16;;;-21.05;84.29
63691;BME280;49837;57.280;27.070;2023-02-22T05:34:55;100289.07;;;-21.03;84.2
63691;BME280;49837;57.280;27.070;2023-02-22T05:35:55;100287.22;;;-21.05;84.08
63691;BME280;49837;57.280;27.070;2023-02-22T05:36:56;100284.77;;;-21.01;83.92
63691;BME280;49837;57.280;27.070;2023-02-22T05:37:56;100288.85;;;-21.03;83.78
63691;BME280;49837;57.280;27.070;2023-02-22T05:38:56;100284.66;;;-21.1;83.59
63691;BME280;49837;57.280;27.070;2023-02-22T05:39:57;100284.5;;;-21.1;83.41
63691;BME280;49837;57.280;27.070;2023-02-22T05:40:57;100283.8;;;-21.06;83.56
63691;BME280;49837;57.280;27.070;2023-02-22T05:41:58;100288.03;;;-21.16;83.18
63691;BME280;49837;57.280;27.070;2023-02-22T05:42:58;100288.03;;;-21.27;82.71
63691;BME280;49837;57.280;27.070;2023-02-22T05:43:59;100291.08;;;-21.39;82.76
63691;BME280;49837;57.280;27.070;2023-02-22T05:44:59;100290.42;;;-21.47;82.55
63691;BME280;49837;57.280;27.070;2023-02-22T05:45:59;100291.06;;;-21.51;82.43
63691;BME280;49837;57.280;27.070;2023-02-22T05:46:59;100296.48;;;-21.57;82.41
63691;BME280;49837;57.280;27.070;2023-02-22T05:48:01;100296.59;;;-21.58;82.46
63691;BME280;49837;57.280;27.070;2023-02-22T05:49:00;100297.02;;;-21.56;82.5
63691;BME280;49837;57.280;27.070;2023-02-22T05:50:00;100300.59;;;-21.53;82.72
63691;BME280;49837;57.280;27.070;2023-02-22T05:51:01;100300.3;;;-21.44;82.75
63691;BME280;49837;57.280;27.070;2023-02-22T05:52:01;100303.95;;;-21.37;83.14
63691;BME280;49837;57.280;27.070;2023-02-22T05:53:02;100304.39;;;-21.32;83.29
63691;BME280;49837;57.280;27.070;2023-02-22T05:54:02;100305.02;;;-21.22;83.44
63691;BME280;49837;57.280;27.070;2023-02-22T05:55:04;100309.72;;;-21.14;83.51
63691;BME280;49837;57.280;27.070;2023-02-22T05:56:03;100309.16;;;-21.06;83.32
63691;BME280;49837;57.280;27.070;2023-02-22T05:57:03;100312.33;;;-21.06;83.33
63691;BME280;49837;57.280;27.070;2023-02-22T05:58:03;100319.48;;;-21.01;83.28
63691;BME280;49837;57.280;27.070;2023-02-22T05:59:04;100318.88;;;-20.96;83.44
63691;BME280;49837;57.280;27.070;2023-02-22T06:00:06;100315.62;;;-20.99;83.17
63691;BME280;49837;57.280;27.070;2023-02-22T06:01:05;100321.11;;;-21.0;83.02
63691;BME280;49837;57.280;27.070;2023-02-22T06:02:05;100319.32;;;-21.01;82.68
63691;BME280;49837;57.280;27.070;2023-02-22T06:03:07;100315.61;;;-21.01;82.52